Time;durP1;ratioP1;P1;durP2;ratioP2;P2;SDS_P1;SDS_P2;PMS_P1;PMS_P2;Temp;Humidity;BMP_temperature;BMP_pressure;BME280_temperature;BME280_humidity;BME280_pressure;Samples;Min_cycle;Max_cycle;Signal;HPM_P1;HPM_P2
2022/10/27 00:03:02;;;;;;;27.13;12.00;;;;;;;-144.59;100.00;63158.22;4898480;29;20205;-84
2022/10/27 00:37:08;;;;;;;22.57;11.83;;;;;;;-144.59;100.00;63158.22;5013400;28;20205;-84
2022/10/27 00:57:22;;;;;;;31.23;9.23;;;;;;;-144.59;100.00;63158.22;4919422;28;20207;-84
2022/10/27 01:00:50;;;;;;;26.43;11.30;;;;;;;-144.59;100.00;63158.22;4979918;28;20211;-84
2022/10/27 01:21:15;;;;;;;11.43;8.13;;;;;;;-144.59;100.00;63158.22;4953851;28;20192;-84
2022/10/27 01:38:41;;;;;;;21.10;9.67;;;;;;;-144.59;100.00;63158.22;4860445;29;20206;-84
2022/10/27 01:58:56;;;;;;;17.10;8.03;;;;;;;-144.59;100.00;63158.22;4818452;29;20206;-84
2022/10/27 02:05:36;;;;;;;14.07;6.70;;;;;;;-144.59;100.00;63158.22;4840971;29;20232;-84
2022/10/27 02:16:13;;;;;;;35.53;7.77;;;;;;;-144.59;100.00;63158.22;4848642;29;20217;-84
2022/10/27 02:26:10;;;;;;;14.13;8.77;;;;;;;-144.59;100.00;63158.22;4900079;29;20254;-84
2022/10/27 02:32:30;;;;;;;19.83;9.07;;;;;;;-144.59;100.00;63158.22;4859643;29;20206;-84
2022/10/27 02:46:05;;;;;;;20.30;9.07;;;;;;;-144.59;100.00;63158.22;4895144;29;20210;-84
2022/10/27 02:49:43;;;;;;;48.33;8.37;;;;;;;-144.59;100.00;63158.22;4903839;29;20261;-85
2022/10/27 02:56:14;;;;;;;31.37;6.57;;;;;;;11.33;100.00;100004.53;5147326;27;20529;-84
2022/10/27 02:59:02;;;;;;;44.77;6.23;;;;;;;11.29;100.00;100008.31;5031015;28;20641;-84
2022/10/27 03:01:53;;;;;;;28.23;5.60;;;;;;;11.28;100.00;100006.56;5027325;28;20296;-84
2022/10/27 03:04:29;;;;;;;9.53;5.83;;;;;;;11.38;100.00;100013.09;5027370;28;20212;-84
2022/10/27 03:07:06;;;;;;;19.77;6.50;;;;;;;11.31;100.00;100006.41;5084301;28;20210;-84
2022/10/27 03:09:49;;;;;;;57.73;8.53;;;;;;;11.26;100.00;100007.59;5028636;28;20205;-84
2022/10/27 03:12:38;;;;;;;50.33;7.97;;;;;;;11.11;100.00;100012.78;4987601;28;20639;-84
2022/10/27 03:18:07;;;;;;;36.73;7.33;;;;;;;11.00;100.00;99999.22;4988928;28;20306;-83
2022/10/27 03:20:39;;;;;;;9.07;5.93;;;;;;;11.04;100.00;100003.41;4966895;28;20718;-83
2022/10/27 03:23:10;;;;;;;14.77;7.50;;;;;;;11.06;100.00;100014.78;4930949;29;20300;-83
2022/10/27 03:25:44;;;;;;;29.27;7.37;;;;;;;11.02;100.00;100013.25;4927916;29;20197;-84
2022/10/27 03:28:24;;;;;;;41.87;7.20;;;;;;;10.95;100.00;100009.19;4851104;29;20215;-84
2022/10/27 03:31:21;;;;;;;13.27;5.53;;;;;;;10.88;100.00;100006.00;4808059;29;20206;-84
2022/10/27 03:33:53;;;;;;;11.70;5.47;;;;;;;11.06;100.00;100024.53;4746344;30;20204;-83
2022/10/27 03:36:29;;;;;;;16.57;4.53;;;;;;;11.00;100.00;100022.19;4744372;30;20275;-84
2022/10/27 03:39:11;;;;;;;47.67;6.07;;;;;;;11.03;100.00;100030.00;4806181;29;20254;-84
2022/10/27 03:41:45;;;;;;;32.00;5.63;;;;;;;11.15;100.00;100032.88;4830594;29;20283;-84
2022/10/27 03:44:18;;;;;;;49.27;7.80;;;;;;;11.10;100.00;100031.41;4815399;29;20210;-84
2022/10/27 03:46:49;;;;;;;18.30;6.07;;;;;;;11.08;100.00;100023.53;4800469;29;20682;-84
2022/10/27 03:49:31;;;;;;;34.00;6.57;;;;;;;11.10;100.00;100029.63;4818876;29;20213;-83
2022/10/27 03:54:54;;;;;;;26.07;5.80;;;;;;;10.88;100.00;100024.56;4820166;29;20246;-84
2022/10/27 03:57:34;;;;;;;6.60;5.20;;;;;;;10.84;100.00;100028.31;4799366;29;20201;-85
2022/10/27 04:00:24;;;;;;;20.27;6.10;;;;;;;10.79;100.00;100021.50;4845126;29;20199;-84
2022/10/27 04:03:09;;;;;;;38.57;6.87;;;;;;;10.82;100.00;100032.84;4932909;29;20201;-83
2022/10/27 04:08:36;;;;;;;32.63;6.70;;;;;;;10.72;100.00;100028.94;5028893;28;20194;-83
2022/10/27 04:14:00;;;;;;;25.67;5.77;;;;;;;10.72;100.00;100028.94;5090678;28;20219;-83
2022/10/27 04:16:40;;;;;;;47.00;6.33;;;;;;;10.76;100.00;100026.97;4970917;28;20224;-84
2022/10/27 04:19:12;;;;;;;10.67;4.80;;;;;;;10.75;100.00;100039.38;4917189;28;20232;-84
2022/10/27 04:21:52;;;;;;;5.80;3.80;;;;;;;10.77;100.00;100037.50;4907400;28;20194;-84
2022/10/27 04:24:46;;;;;;;26.50;5.23;;;;;;;10.76;100.00;100045.53;4914703;29;20202;-84
2022/10/27 04:27:28;;;;;;;7.93;4.00;;;;;;;10.75;100.00;100047.31;4879808;29;20214;-84
2022/10/27 04:30:02;;;;;;;26.87;5.40;;;;;;;10.72;100.00;100041.34;4973905;28;20238;-83
2022/10/27 04:32:59;;;;;;;32.73;5.80;;;;;;;10.78;100.00;100043.66;4968115;28;20200;-86
2022/10/27 04:35:42;;;;;;;33.73;5.50;;;;;;;10.81;100.00;100048.81;4934974;29;20220;-84
2022/10/27 04:38:15;;;;;;;11.67;4.50;;;;;;;10.82;100.00;100043.44;4914212;29;20301;-84
2022/10/27 04:40:54;;;;;;;13.73;4.53;;;;;;;10.78;100.00;100047.16;4929031;29;20200;-84
2022/10/27 04:43:46;;;;;;;52.87;7.33;;;;;;;10.78;100.00;100041.84;4978168;28;20220;-84
2022/10/27 04:46:30;;;;;;;31.97;5.50;;;;;;;10.77;100.00;100040.16;4917047;29;20197;-84
2022/10/27 04:49:09;;;;;;;15.80;4.83;;;;;;;10.85;100.00;100050.38;4914797;29;20190;-85
2022/10/27 04:51:59;;;;;;;29.07;5.27;;;;;;;10.82;100.00;100043.44;4882106;29;20279;-84
2022/10/27 04:54:49;;;;;;;32.97;5.70;;;;;;;10.83;100.00;100045.16;4925680;29;20240;-84
2022/10/27 04:57:37;;;;;;;41.90;6.37;;;;;;;10.82;100.00;100040.78;4967895;28;20290;-84
2022/10/27 05:00:33;;;;;;;9.30;5.60;;;;;;;10.86;100.00;100029.09;4973156;28;20287;-84
2022/10/27 05:03:19;;;;;;;14.63;4.83;;;;;;;10.93;100.00;100042.03;4878671;29;20206;-84
2022/10/27 05:06:21;;;;;;;26.13;4.53;;;;;;;10.86;100.00;100044.97;4864154;29;20252;-84
2022/10/27 05:12:05;;;;;;;31.87;3.70;;;;;;;10.72;100.00;100034.25;4923324;29;20203;-85
2022/10/27 05:14:39;;;;;;;17.27;3.33;;;;;;;10.68;100.00;100037.09;4947085;29;20656;-84
2022/10/27 05:17:28;;;;;;;22.67;4.00;;;;;;;10.76;100.00;100035.78;4936247;29;20285;-84
2022/10/27 05:20:24;;;;;;;12.73;3.87;;;;;;;10.78;100.00;100030.41;4952870;28;20291;-85
2022/10/27 05:22:57;;;;;;;23.43;4.63;;;;;;;10.81;100.00;100031.13;4970055;28;20206;-84
2022/10/27 05:25:28;;;;;;;34.63;5.13;;;;;;;10.84;100.00;100030.97;4913909;29;20201;-85
2022/10/27 05:28:05;;;;;;;50.30;5.27;;;;;;;10.80;100.00;100032.03;4874642;29;20274;-84
2022/10/27 05:30:36;;;;;;;17.17;4.47;;;;;;;10.87;100.00;100032.59;4870800;29;20263;-86
2022/10/27 05:36:00;;;;;;;20.07;4.23;;;;;;;10.77;100.00;100034.00;4878235;29;20369;-83
2022/10/27 05:38:51;;;;;;;15.70;4.43;;;;;;;10.73;100.00;100032.44;4834716;29;20656;-83
2022/10/27 05:41:27;;;;;;;18.57;4.30;;;;;;;10.59;100.00;100031.34;4924945;29;20244;-84
2022/10/27 05:44:07;;;;;;;15.30;10.33;;;;;;;10.65;100.00;100037.28;4914934;29;20281;-84
2022/10/27 05:47:07;;;;;;;19.80;7.53;;;;;;;10.57;100.00;100027.91;4963579;28;20199;-83
2022/10/27 05:49:51;;;;;;;12.10;4.47;;;;;;;10.58;100.00;100032.25;4915245;29;20201;-84
2022/10/27 05:52:43;;;;;;;16.13;4.73;;;;;;;10.53;100.00;100036.94;4914206;29;20205;-83
2022/10/27 05:58:44;;;;;;;23.30;4.10;;;;;;;10.44;100.00;100028.59;4932250;29;20205;-83
2022/10/27 06:04:32;;;;;;;32.43;5.60;;;;;;;10.41;100.00;100020.78;4972188;28;20201;-85
2022/10/27 06:07:08;;;;;;;45.83;4.60;;;;;;;10.41;100.00;100029.59;4934116;29;20200;-83
2022/10/27 06:10:07;;;;;;;22.10;3.30;;;;;;;10.44;100.00;100031.25;4879147;29;20221;-84
2022/10/27 06:13:14;;;;;;;23.53;4.60;;;;;;;10.22;100.00;100034.06;4914008;29;20406;-83
2022/10/27 06:15:51;;;;;;;25.67;5.03;;;;;;;10.15;100.00;100033.50;4881533;29;20308;-84
2022/10/27 06:18:21;;;;;;;18.40;4.47;;;;;;;10.17;100.00;100030.78;4877842;29;20239;-83
2022/10/27 06:21:14;;;;;;;14.20;4.23;;;;;;;10.04;100.00;100028.72;4899597;29;20198;-83
2022/10/27 06:23:54;;;;;;;20.27;3.73;;;;;;;9.85;100.00;100034.97;4877343;29;20228;-83
2022/10/27 06:26:44;;;;;;;14.37;3.60;;;;;;;10.00;100.00;100029.78;4871992;29;20210;-84
2022/10/27 06:30:01;;;;;;;11.00;4.00;;;;;;;10.13;100.00;100026.53;4875893;29;20290;-83
2022/10/27 06:32:40;;;;;;;7.67;4.97;;;;;;;10.30;100.00;100027.47;4893420;29;20206;-84
2022/10/27 06:35:24;;;;;;;11.30;5.37;;;;;;;10.35;100.00;100023.75;4972248;28;20211;-84
2022/10/27 06:37:53;;;;;;;8.53;4.90;;;;;;;10.39;100.00;100033.25;4989944;28;20202;-83
2022/10/27 06:40:40;;;;;;;10.63;5.03;;;;;;;10.43;100.00;100034.84;4986969;28;20207;-84
2022/10/27 06:43:19;;;;;;;11.87;4.63;;;;;;;10.47;100.00;100042.53;4975858;28;20209;-85
2022/10/27 06:46:48;;;;;;;12.53;4.50;;;;;;;10.40;100.00;100045.56;4925927;28;20253;-85
2022/10/27 06:50:27;;;;;;;17.43;4.70;;;;;;;10.47;100.00;100060.22;4954731;28;20187;-84
2022/10/27 06:53:37;;;;;;;17.27;5.13;;;;;;;10.55;100.00;100072.16;4931732;29;20288;-83
2022/10/27 06:56:13;;;;;;;11.20;5.77;;;;;;;10.60;100.00;100067.47;4972505;28;20236;-83
2022/10/27 06:59:11;;;;;;;14.17;6.43;;;;;;;10.59;100.00;100071.06;4934107;28;20201;-84
2022/10/27 07:01:50;;;;;;;25.00;7.13;;;;;;;10.53;100.00;100067.88;4929014;29;20193;-84
2022/10/27 07:04:32;;;;;;;12.40;6.67;;;;;;;10.66;100.00;100079.59;4951371;29;20215;-84
2022/10/27 07:10:36;;;;;;;22.83;7.43;;;;;;;10.88;100.00;100092.59;4972375;28;20237;-84
2022/10/27 07:13:20;;;;;;;27.13;7.77;;;;;;;10.99;100.00;100090.28;4971187;28;20203;-84
2022/10/27 07:16:05;;;;;;;15.47;7.70;;;;;;;11.06;100.00;100093.47;4932538;29;20220;-84
2022/10/27 07:21:43;;;;;;;23.77;7.80;;;;;;;11.09;100.00;100093.31;4932676;29;20205;-84
2022/10/27 07:24:17;;;;;;;19.77;7.57;;;;;;;11.27;100.00;100091.50;4933263;29;20189;-84
2022/10/27 07:29:48;;;;;;;16.27;7.37;;;;;;;11.38;100.00;100081.19;4970880;28;20203;-84
2022/10/27 07:32:29;;;;;;;49.87;9.13;;;;;;;11.39;100.00;100083.78;4971939;28;20214;-84
2022/10/27 07:35:13;;;;;;;16.23;7.20;;;;;;;11.47;100.00;100078.91;4971906;28;20191;-84
2022/10/27 07:37:57;;;;;;;14.30;6.97;;;;;;;11.59;100.00;100076.56;4909858;28;20281;-84
2022/10/27 07:41:00;;;;;;;10.50;6.30;;;;;;;11.64;100.00;100075.38;4951680;28;20204;-84
2022/10/27 07:43:47;;;;;;;7.77;5.57;;;;;;;11.88;100.00;100073.25;4954704;28;20277;-84
2022/10/27 07:46:35;;;;;;;10.73;6.97;;;;;;;12.03;100.00;100080.34;4950155;29;20208;-84
2022/10/27 07:49:12;;;;;;;10.70;6.07;;;;;;;12.07;100.00;100088.16;4954914;29;20204;-84
2022/10/27 07:51:47;;;;;;;8.97;6.73;;;;;;;11.96;100.00;100088.72;4931233;29;20680;-84
2022/10/27 07:54:23;;;;;;;10.87;6.93;;;;;;;12.16;100.00;100093.81;4948930;29;20255;-83
2022/10/27 07:56:54;;;;;;;31.60;8.47;;;;;;;12.36;100.00;100108.66;4950145;29;20215;-85
2022/10/27 07:59:43;;;;;;;10.17;7.10;;;;;;;12.28;100.00;100102.91;4955341;29;20298;-84
2022/10/27 08:08:10;;;;;;;10.13;8.07;;;;;;;12.83;100.00;100100.59;4937093;29;20201;-84
2022/10/27 08:10:45;;;;;;;11.43;9.03;;;;;;;12.99;100.00;100102.38;4965774;28;20206;-81
2022/10/27 08:13:16;;;;;;;11.60;8.50;;;;;;;13.02;100.00;100094.19;4878514;29;20214;-84
2022/10/27 08:16:04;;;;;;;11.27;8.70;;;;;;;13.43;100.00;100091.78;4873342;29;20398;-84
2022/10/27 08:18:44;;;;;;;11.40;9.30;;;;;;;13.53;100.00;100084.94;4857747;29;20729;-84
2022/10/27 08:21:27;;;;;;;10.30;9.00;;;;;;;13.41;100.00;100089.22;4859872;29;20218;-84
2022/10/27 08:24:01;;;;;;;11.70;8.80;;;;;;;13.56;100.00;100083.88;4859279;29;20204;-84
2022/10/27 08:26:33;;;;;;;10.13;8.27;;;;;;;13.70;100.00;100087.41;4848912;29;20206;-84
2022/10/27 08:29:06;;;;;;;9.53;8.13;;;;;;;13.87;100.00;100082.84;4887334;29;20228;-84
2022/10/27 08:31:45;;;;;;;11.37;7.83;;;;;;;13.85;100.00;100087.41;4932045;29;20220;-84
2022/10/27 08:34:23;;;;;;;8.23;7.07;;;;;;;14.11;100.00;100083.97;4930250;29;20216;-84
2022/10/27 08:37:07;;;;;;;8.83;7.90;;;;;;;14.26;100.00;100090.97;4901596;29;20221;-85
2022/10/27 08:39:51;;;;;;;9.83;7.47;;;;;;;14.40;100.00;100089.22;4946647;28;20191;-85
2022/10/27 08:42:36;;;;;;;8.73;7.20;;;;;;;14.48;100.00;100086.97;4989254;28;20243;-84
2022/10/27 08:45:11;;;;;;;8.13;6.70;;;;;;;14.70;100.00;100079.25;4984106;28;20690;-84
2022/10/27 08:47:55;;;;;;;9.67;7.03;;;;;;;14.83;100.00;100080.13;4934517;29;20243;-85
2022/10/27 08:50:30;;;;;;;10.33;6.40;;;;;;;15.09;100.00;100074.88;4933460;29;20205;-84
2022/10/27 08:53:15;;;;;;;10.07;6.30;;;;;;;15.18;100.00;100074.25;4935648;29;20236;-84
2022/10/27 08:56:02;;;;;;;9.83;5.93;;;;;;;15.52;100.00;100077.22;4925851;29;20229;-85
2022/10/27 08:58:49;;;;;;;5.37;4.83;;;;;;;15.47;100.00;100066.88;4933750;29;20316;-84
2022/10/27 09:01:34;;;;;;;6.27;4.13;;;;;;;15.67;100.00;100065.53;4960432;28;20334;-84
2022/10/27 09:04:43;;;;;;;5.87;3.77;;;;;;;15.92;100.00;100065.50;4989203;28;20399;-84
2022/10/27 09:10:23;;;;;;;5.37;2.77;;;;;;;16.48;100.00;100033.75;5012364;28;20230;-84
2022/10/27 09:13:09;;;;;;;4.83;3.07;;;;;;;16.81;100.00;100013.50;5019127;28;20626;-85
2022/10/27 09:15:43;;;;;;;5.53;2.93;;;;;;;16.96;100.00;100004.28;5086212;28;20195;-85
2022/10/27 09:18:22;;;;;;;6.47;2.60;;;;;;;17.17;100.00;99991.06;5086651;28;20787;-86
2022/10/27 09:20:54;;;;;;;6.90;2.70;;;;;;;17.28;100.00;99971.50;5027441;28;20234;-84
2022/10/27 09:24:01;;;;;;;6.07;3.00;;;;;;;17.42;100.00;99965.88;5026266;28;20232;-85
2022/10/27 09:26:37;;;;;;;4.33;2.20;;;;;;;17.43;100.00;99955.06;4969868;28;20286;-86
2022/10/27 09:29:20;;;;;;;6.20;2.10;;;;;;;17.59;100.00;99949.34;4968918;28;20265;-85
2022/10/27 09:32:03;;;;;;;3.13;1.87;;;;;;;17.46;100.00;99938.72;4994312;28;20230;-84
2022/10/27 09:34:44;;;;;;;6.93;1.80;;;;;;;17.54;100.00;99934.59;4950786;29;20196;-85
2022/10/27 09:37:20;;;;;;;4.80;1.97;;;;;;;17.75;100.00;99938.22;4952677;29;20220;-85
2022/10/27 09:40:12;;;;;;;3.80;1.80;;;;;;;17.91;100.00;99927.97;4921437;29;20256;-85
2022/10/27 09:45:49;;;;;;;10.43;2.07;;;;;;;18.45;100.00;99928.88;4913102;29;20198;-85
2022/10/27 09:48:32;;;;;;;5.07;1.90;;;;;;;18.44;100.00;99922.69;4841253;29;20204;-84
2022/10/27 09:51:17;;;;;;;3.73;1.73;;;;;;;18.64;100.00;99914.75;4891182;29;20240;-84
2022/10/27 09:53:49;;;;;;;2.57;1.90;;;;;;;18.85;100.00;99918.31;4892632;29;20205;-84
2022/10/27 09:56:34;;;;;;;4.63;2.20;;;;;;;18.70;100.00;99907.06;4877231;29;20238;-84
2022/10/27 09:59:08;;;;;;;3.10;2.00;;;;;;;18.61;100.00;99910.50;4802987;29;20218;-82
2022/10/27 10:01:50;;;;;;;4.03;2.03;;;;;;;18.47;100.00;99911.69;4802744;29;20205;-84
2022/10/27 10:04:26;;;;;;;6.03;2.13;;;;;;;18.65;100.00;99905.75;4799330;29;20214;-84
2022/10/27 10:06:58;;;;;;;3.60;1.60;;;;;;;18.87;100.00;99913.66;4819328;29;20266;-84
2022/10/27 10:09:32;;;;;;;3.63;2.07;;;;;;;19.06;100.00;99907.53;4819682;29;20269;-84
2022/10/27 10:12:21;;;;;;;5.33;1.80;;;;;;;19.10;100.00;99898.22;4831779;29;20198;-84
2022/10/27 10:15:38;;;;;;;5.00;1.70;;;;;;;18.96;100.00;99896.75;4876043;29;20207;-85
2022/10/27 10:18:25;;;;;;;7.33;2.30;;;;;;;19.03;100.00;99899.78;4956513;28;20282;-84
2022/10/27 10:21:06;;;;;;;3.37;2.10;;;;;;;18.83;100.00;99905.03;4970943;28;20206;-84
2022/10/27 10:23:37;;;;;;;6.40;2.30;;;;;;;19.03;100.00;99900.63;4967829;28;20223;-83
2022/10/27 10:26:15;;;;;;;4.03;1.83;;;;;;;19.45;100.00;99903.19;4967172;28;20222;-84
2022/10/27 10:28:51;;;;;;;6.10;1.80;;;;;;;19.66;100.00;99887.00;4970976;28;20192;-85
2022/10/27 10:31:25;;;;;;;3.17;1.70;;;;;;;19.80;100.00;99891.16;4968722;28;20238;-83
2022/10/27 10:34:02;;;;;;;2.53;1.80;;;;;;;19.98;100.00;99874.19;4969748;28;20199;-84
2022/10/27 10:36:35;;;;;;;3.43;1.60;;;;;;;19.96;100.00;99878.84;4924484;29;20208;-84
2022/10/27 10:39:22;;;;;;;4.57;1.83;;;;;;;20.21;100.00;99876.59;4949367;28;20213;-84
2022/10/27 10:42:14;;;;;;;4.93;1.50;;;;;;;20.05;100.00;99881.69;4950088;28;20223;-84
2022/10/27 10:44:44;;;;;;;5.07;2.03;;;;;;;19.88;100.00;99878.72;4961402;28;20226;-84
2022/10/27 10:47:26;;;;;;;3.17;2.10;;;;;;;20.07;100.00;99872.47;4953885;28;20196;-84
2022/10/27 10:49:57;;;;;;;3.20;1.90;;;;;;;20.02;100.00;99862.16;4948067;29;20304;-84
2022/10/27 10:52:33;;;;;;;5.83;1.83;;;;;;;20.25;100.00;99868.06;4956701;28;20196;-84
2022/10/27 10:55:06;;;;;;;3.83;1.57;;;;;;;20.42;100.00;99860.28;4925712;28;20196;-84
2022/10/27 10:57:39;;;;;;;5.30;1.90;;;;;;;19.87;100.00;99857.31;4948864;28;20246;-84
2022/10/27 11:00:18;;;;;;;7.53;2.20;;;;;;;20.35;100.00;99853.75;4962029;28;20243;-84
2022/10/27 11:02:53;;;;;;;6.60;1.90;;;;;;;20.41;100.00;99850.50;5064695;28;20202;-84
2022/10/27 11:05:30;;;;;;;3.57;2.07;;;;;;;20.11;100.00;99847.00;5067163;28;20203;-84
2022/10/27 11:07:59;;;;;;;3.53;1.80;;;;;;;20.41;100.00;99848.66;4987178;28;20187;-84
2022/10/27 11:10:31;;;;;;;5.63;2.30;;;;;;;20.47;100.00;99839.22;4987842;28;20237;-84
2022/10/27 11:13:05;;;;;;;5.37;2.00;;;;;;;20.29;100.00;99839.06;4985420;28;20224;-84
2022/10/27 11:15:43;;;;;;;6.20;2.17;;;;;;;20.49;100.00;99831.84;4985969;28;20281;-84
2022/10/27 11:18:17;;;;;;;4.27;2.07;;;;;;;20.79;100.00;99825.38;4990293;28;20229;-84
2022/10/27 11:20:56;;;;;;;5.47;2.30;;;;;;;20.81;100.00;99832.31;4994888;28;20195;-84
2022/10/27 11:23:30;;;;;;;3.70;2.13;;;;;;;20.66;100.00;99820.31;4990632;28;20359;-84
2022/10/27 11:26:01;;;;;;;6.17;2.50;;;;;;;20.53;100.00;99817.06;5028079;28;20189;-84
2022/10/27 11:28:37;;;;;;;4.97;2.43;;;;;;;20.69;100.00;99814.63;5013069;28;20199;-84
2022/10/27 11:31:17;;;;;;;4.93;2.20;;;;;;;20.85;100.00;99817.56;5090904;28;20642;-84
2022/10/27 11:33:52;;;;;;;5.07;1.93;;;;;;;21.07;100.00;99810.94;5044928;28;20195;-84
2022/10/27 11:36:28;;;;;;;5.67;2.43;;;;;;;21.22;100.00;99797.78;5017308;28;20186;-84
2022/10/27 11:39:06;;;;;;;3.83;2.50;;;;;;;21.22;100.00;99803.19;5017982;28;20221;-84
2022/10/27 11:41:42;;;;;;;5.20;2.30;;;;;;;21.36;100.00;99796.50;5014525;28;20282;-84
2022/10/27 11:44:22;;;;;;;5.53;2.27;;;;;;;21.23;100.00;99791.44;4979083;28;20666;-84
2022/10/27 11:46:59;;;;;;;4.80;2.47;;;;;;;20.75;100.00;99789.81;4974832;28;20211;-84
2022/10/27 11:49:36;;;;;;;7.60;2.27;;;;;;;21.03;100.00;99774.50;4939175;28;20681;-84
2022/10/27 11:52:13;;;;;;;5.43;2.70;;;;;;;21.00;100.00;99782.88;4917526;28;20271;-84
2022/10/27 11:54:42;;;;;;;6.00;2.87;;;;;;;21.24;100.00;99789.59;4921044;28;20248;-83
2022/10/27 11:57:25;;;;;;;9.00;2.60;;;;;;;21.37;100.00;99782.00;4914130;28;20284;-84
2022/10/27 12:00:15;;;;;;;5.07;2.80;;;;;;;21.48;100.00;99775.56;4927668;28;20229;-84
2022/10/27 12:03:34;;;;;;;7.10;2.90;;;;;;;21.56;100.00;99772.94;4956762;28;20204;-84
2022/10/27 12:06:12;;;;;;;7.40;2.90;;;;;;;21.75;100.00;99770.09;4970194;28;20192;-84
2022/10/27 12:08:53;;;;;;;6.07;2.70;;;;;;;21.79;100.00;99766.06;4971480;28;20249;-84
2022/10/27 12:11:30;;;;;;;7.63;2.80;;;;;;;21.86;100.00;99763.59;4971954;28;20202;-84
2022/10/27 12:14:08;;;;;;;7.67;2.93;;;;;;;21.86;100.00;99766.31;4967302;28;20233;-83
2022/10/27 12:16:45;;;;;;;6.80;3.30;;;;;;;21.94;100.00;99764.53;4968434;28;20250;-84
2022/10/27 12:19:18;;;;;;;5.67;3.13;;;;;;;22.04;100.00;99772.53;4931616;28;20247;-83
2022/10/27 12:21:52;;;;;;;7.53;3.20;;;;;;;22.04;100.00;99772.53;4921541;28;20250;-84
2022/10/27 12:24:28;;;;;;;6.17;2.80;;;;;;;21.58;100.00;99774.47;4914179;28;20317;-83
2022/10/27 12:27:01;;;;;;;5.57;2.70;;;;;;;21.43;100.00;99771.47;4908694;29;20236;-87
2022/10/27 12:29:34;;;;;;;9.40;3.30;;;;;;;21.49;100.00;99771.84;4914685;28;20305;-84
2022/10/27 12:32:10;;;;;;;7.43;3.03;;;;;;;21.73;100.00;99773.94;4912449;29;20229;-84
2022/10/27 12:34:45;;;;;;;8.17;2.90;;;;;;;22.01;100.00;99772.84;4961458;28;20191;-84
2022/10/27 12:37:23;;;;;;;9.03;2.67;;;;;;;22.06;100.00;99775.91;4973508;28;20660;-83
2022/10/27 12:40:01;;;;;;;8.57;2.73;;;;;;;21.92;100.00;99777.34;4966352;28;20261;-83
2022/10/27 12:42:40;;;;;;;7.43;2.80;;;;;;;21.81;100.00;99772.19;4992372;28;20270;-84
2022/10/27 12:45:29;;;;;;;7.83;3.07;;;;;;;22.14;100.00;99770.63;5012038;28;20202;-84
2022/10/27 12:48:08;;;;;;;7.00;3.13;;;;;;;22.53;100.00;99762.09;5011828;28;20244;-84
2022/10/27 12:50:44;;;;;;;6.60;3.07;;;;;;;22.38;100.00;99766.38;5009587;28;20198;-84
2022/10/27 12:53:29;;;;;;;5.17;3.10;;;;;;;22.42;100.00;99762.38;5012035;28;20201;-84
2022/10/27 12:56:04;;;;;;;7.03;3.10;;;;;;;22.82;100.00;99759.88;5013917;28;20215;-84
2022/10/27 12:58:45;;;;;;;8.57;3.37;;;;;;;22.66;100.00;99749.00;5066873;28;20200;-84
2022/10/27 13:01:26;;;;;;;6.60;2.70;;;;;;;22.92;100.00;99751.69;5064100;28;20238;-84
2022/10/27 13:04:38;;;;;;;9.37;3.27;;;;;;;22.96;100.00;99749.50;5039410;28;20204;-84
2022/10/27 13:07:25;;;;;;;8.10;3.30;;;;;;;23.10;100.00;99740.78;5065989;28;20196;-83
2022/10/27 13:13:47;;;;;;;10.52;3.10;;;;;;;23.18;100.00;99735.41;5116948;27;20759;-84
2022/10/27 13:16:29;;;;;;;6.53;3.20;;;;;;;23.24;100.00;99732.03;5104760;28;20194;-84
2022/10/27 13:19:20;;;;;;;6.72;3.00;;;;;;;23.66;100.00;99728.41;5106601;28;20209;-85
2022/10/27 13:21:58;;;;;;;9.40;3.10;;;;;;;24.02;100.00;99725.34;5084539;28;20627;-84
2022/10/27 13:24:34;;;;;;;9.35;2.75;;;;;;;24.10;100.00;99728.06;5084386;28;20196;-85
2022/10/27 13:27:11;;;;;;;9.45;2.85;;;;;;;23.52;100.00;99734.44;5087037;28;20206;-84
2022/10/27 13:29:49;;;;;;;7.38;3.17;;;;;;;23.24;100.00;99723.06;5087425;28;20199;-84
2022/10/27 13:32:31;;;;;;;6.45;3.08;;;;;;;23.76;100.00;99720.13;5082895;28;20219;-84
2022/10/27 13:35:29;;;;;;;9.52;3.05;;;;;;;23.82;100.00;99720.28;5080448;28;20195;-84
2022/10/27 13:38:21;;;;;;;4.95;2.80;;;;;;;23.87;100.00;99720.63;5080251;28;20215;-85
2022/10/27 13:40:51;;;;;;;8.93;3.72;;;;;;;23.76;100.00;99718.28;5105093;28;20634;-85
2022/10/27 13:44:00;;;;;;;7.90;3.25;;;;;;;23.37;100.00;99726.16;5108439;28;20206;-84
2022/10/27 13:47:10;;;;;;;8.05;3.30;;;;;;;23.71;100.00;99720.63;5109072;28;20192;-84
2022/10/27 13:50:00;;;;;;;8.10;3.00;;;;;;;23.73;100.00;99720.47;5111252;28;20199;-84
2022/10/27 13:52:31;;;;;;;5.97;3.38;;;;;;;23.30;100.00;99715.16;5105012;28;20299;-85
2022/10/27 13:55:35;;;;;;;13.23;3.53;;;;;;;23.62;100.00;99717.06;5110004;28;20195;-84
2022/10/27 13:58:39;;;;;;;7.85;3.35;;;;;;;24.08;100.00;99713.84;5109795;28;20198;-85
2022/10/27 14:01:32;;;;;;;7.53;3.58;;;;;;;24.31;100.00;99722.97;5109718;28;20272;-84
2022/10/27 14:04:16;;;;;;;7.43;3.30;;;;;;;24.42;100.00;99714.50;5105744;28;20211;-85
2022/10/27 14:06:49;;;;;;;8.70;3.42;;;;;;;24.28;100.00;99717.88;5107179;28;20252;-85
2022/10/27 14:09:25;;;;;;;10.38;3.20;;;;;;;24.65;100.00;99713.75;5104018;28;20187;-84
2022/10/27 14:11:59;;;;;;;5.93;3.38;;;;;;;25.17;100.00;99715.91;5100988;28;20223;-84
2022/10/27 14:14:31;;;;;;;7.93;3.28;;;;;;;25.25;100.00;99711.28;5102210;28;20198;-85
2022/10/27 14:17:06;;;;;;;6.40;3.00;;;;;;;25.37;100.00;99704.41;5102215;28;20203;-84
2022/10/27 14:19:36;;;;;;;6.72;3.20;;;;;;;25.42;100.00;99703.03;5098827;28;20187;-84
2022/10/27 14:22:06;;;;;;;6.53;3.13;;;;;;;24.70;100.00;99716.75;5099474;28;20203;-84
2022/10/27 14:24:45;;;;;;;7.78;3.10;;;;;;;25.25;100.00;99710.44;5085348;28;20195;-84
2022/10/27 14:27:16;;;;;;;8.18;3.38;;;;;;;24.81;100.00;99716.41;5089846;28;20655;-84
2022/10/27 14:29:45;;;;;;;9.05;3.47;;;;;;;24.02;100.00;99706.41;5093708;28;20204;-84
2022/10/27 14:32:20;;;;;;;7.55;3.00;;;;;;;23.93;100.00;99714.56;5095790;28;20215;-84
2022/10/27 14:34:49;;;;;;;7.72;3.13;;;;;;;23.78;100.00;99710.84;5066902;28;20220;-84
2022/10/27 14:37:24;;;;;;;7.90;3.17;;;;;;;23.85;100.00;99708.31;5076225;28;20258;-84
2022/10/27 14:39:53;;;;;;;8.98;3.33;;;;;;;23.35;100.00;99709.22;5068543;28;20231;-84
2022/10/27 14:42:25;;;;;;;4.78;2.97;;;;;;;23.58;100.00;99709.44;5065782;28;20203;-84
2022/10/27 14:45:02;;;;;;;16.13;3.58;;;;;;;23.64;100.00;99709.66;5071479;28;20196;-84
2022/10/27 14:47:33;;;;;;;9.02;3.47;;;;;;;23.73;100.00;99702.38;5070609;28;20196;-84
2022/10/27 14:50:05;;;;;;;9.93;3.50;;;;;;;23.62;100.00;99692.72;5075322;28;20202;-84
2022/10/27 14:52:44;;;;;;;18.48;4.13;;;;;;;23.46;100.00;99689.16;5076283;28;20236;-84
2022/10/27 14:55:18;;;;;;;9.73;3.80;;;;;;;23.75;100.00;99697.66;5067881;28;20275;-84
2022/10/27 14:57:49;;;;;;;9.27;3.63;;;;;;;23.17;100.00;99690.47;5051714;28;20208;-84
2022/10/27 15:00:23;;;;;;;9.00;4.10;;;;;;;23.15;100.00;99697.88;5098247;28;20203;-83
2022/10/27 15:02:51;;;;;;;6.15;3.53;;;;;;;23.38;100.00;99709.75;5096207;28;20249;-84
2022/10/27 15:05:23;;;;;;;6.70;3.40;;;;;;;23.53;100.00;99700.97;5095962;28;20196;-84
2022/10/27 15:07:55;;;;;;;8.43;3.40;;;;;;;23.34;100.00;99707.53;5095367;28;20261;-84
2022/10/27 15:10:25;;;;;;;7.37;3.00;;;;;;;23.50;100.00;99702.16;5094953;28;20253;-83
2022/10/27 15:12:56;;;;;;;8.40;3.20;;;;;;;23.40;100.00;99709.59;5094385;28;20269;-84
2022/10/27 15:15:31;;;;;;;6.55;3.30;;;;;;;23.07;100.00;99703.28;5100078;28;20249;-83
2022/10/27 15:18:04;;;;;;;7.90;3.60;;;;;;;23.25;100.00;99698.56;5099039;28;20323;-84
2022/10/27 15:20:35;;;;;;;7.97;3.57;;;;;;;22.89;100.00;99702.56;5101899;28;20260;-84
2022/10/27 15:23:05;;;;;;;5.93;3.28;;;;;;;22.71;100.00;99698.06;5072892;28;20196;-83
2022/10/27 15:25:34;;;;;;;8.03;3.37;;;;;;;22.34;100.00;99692.13;5052567;28;20204;-83
2022/10/27 15:28:04;;;;;;;9.37;3.60;;;;;;;22.30;100.00;99693.47;5041437;28;20224;-83